This is the latest recevied weather packets stored in our database for station/object K5VP. If no packets are shown the sender has not sent any weather packets the latest 10 day(s).
| Time | Temp. | Humidity | Pressure | Rain* | Wind** | Luminosity | Snow |
|---|---|---|---|---|---|---|---|
| 1777220182 | 25.56° C | 57% | 1014.8 hPa | 0 mm | - | - | - |
| 1777219808 | 25.56° C | 55% | 1014.9 hPa | 0 mm | - | - | - |
| 1777219432 | 25° C | 55% | 1014.8 hPa | 0 mm | - | - | - |
| 1777219041 | 25° C | 57% | 1015 hPa | 0 mm | - | - | - |
| 1777218653 | 25° C | 58% | 1015 hPa | 0 mm | - | - | - |
| 1777218257 | 24.44° C | 60% | 1015 hPa | 0 mm | - | - | - |
| 1777217888 | 24.44° C | 64% | 1015.1 hPa | 0 mm | - | - | - |
| 1777217509 | 24.44° C | 61% | 1015.2 hPa | 0 mm | - | - | - |
| 1777217130 | 24.44° C | 63% | 1015.2 hPa | 0 mm | - | - | - |
| 1777216742 | 24.44° C | 64% | 1015.1 hPa | 0 mm | - | - | - |
| 1777216370 | 23.89° C | 64% | 1015.1 hPa | 0 mm | - | - | - |
| 1777215975 | 23.33° C | 68% | 1015.1 hPa | 0 mm | - | - | - |
| 1777215589 | 22.78° C | 66% | 1015 hPa | 0 mm | - | - | - |
| 1777215199 | 23.33° C | 68% | 1015 hPa | 0 mm | - | - | - |
| 1777214803 | 22.22° C | 69% | 1015.1 hPa | 0 mm | - | - | - |
| 1777214418 | 22.22° C | 72% | 1015.1 hPa | 0 mm | - | - | - |
| 1777214036 | 21.67° C | 74% | 1015 hPa | 0 mm | - | - | - |
| 1777213663 | 21.11° C | 75% | 1015 hPa | 0 mm | - | - | - |
| 1777122274 | 16.11° C | 96% | 1011.8 hPa | 0 mm | - | - | - |
| 1777121881 | 15.56° C | 96% | 1011.6 hPa | 0 mm | - | - | - |
| 1777121484 | 15.56° C | 96% | 1011.5 hPa | 0 mm | - | - | - |
| 1777121101 | 15° C | 96% | 1011.5 hPa | 0 mm | - | - | - |
| 1777120717 | 15° C | 96% | 1011.4 hPa | 0 mm | - | - | - |
| 1777120329 | 15° C | 96% | 1011.4 hPa | 0 mm | - | - | - |
| 1777119960 | 14.44° C | 96% | 1011.3 hPa | 0 mm | - | - | - |
* Rain latest hour (hover to see other rain measurements)
** Current wind speed in m/s (hover to see current wind gust speed)